createdAt,value
2022-12-20T00:01:01.469Z,22.90
2022-12-20T00:03:29.121Z,21.20
2022-12-20T00:05:56.610Z,22.73
2022-12-20T00:08:24.435Z,20.80
2022-12-20T00:10:52.062Z,21.77
2022-12-20T00:13:19.877Z,23.33
2022-12-20T00:15:47.531Z,22.10
2022-12-20T00:18:15.012Z,22.05
2022-12-20T00:20:42.651Z,23.27
2022-12-20T00:23:10.690Z,23.02
2022-12-20T00:25:38.372Z,23.33
2022-12-20T00:28:05.996Z,22.08
2022-12-20T00:30:33.866Z,22.20
2022-12-20T00:33:01.431Z,21.42
2022-12-20T00:35:28.880Z,21.55
2022-12-20T00:37:56.630Z,22.77
2022-12-20T00:40:24.116Z,22.25
2022-12-20T00:42:51.714Z,23.33
2022-12-20T00:45:19.270Z,23.30
2022-12-20T00:47:47.450Z,21.75
2022-12-20T00:50:15.198Z,22.30
2022-12-20T00:52:43.070Z,22.83
2022-12-20T00:55:10.591Z,23.98
2022-12-20T00:57:38.381Z,23.08
2022-12-20T01:00:07.472Z,24.50
2022-12-20T01:02:35.260Z,23.25
2022-12-20T01:05:03.338Z,24.85
2022-12-20T01:07:31.250Z,22.80
2022-12-20T01:09:58.936Z,24.88
2022-12-20T01:12:26.459Z,22.40
2022-12-20T01:14:54.135Z,22.77
2022-12-20T01:17:22.147Z,22.15
2022-12-20T01:19:49.751Z,22.95
2022-12-20T01:22:17.446Z,23.35
2022-12-20T01:24:44.969Z,24.40
2022-12-20T01:27:12.549Z,25.15
2022-12-20T01:29:40.227Z,24.75
2022-12-20T01:32:07.773Z,25.70
2022-12-20T01:34:35.424Z,26.05
2022-12-20T01:37:03.245Z,26.30
2022-12-20T01:39:30.801Z,26.60
2022-12-20T01:41:58.421Z,26.70
2022-12-20T01:44:26.067Z,24.95
2022-12-20T01:46:54.435Z,22.75
2022-12-20T01:49:27.252Z,23.15
2022-12-20T01:51:57.308Z,22.63
2022-12-20T01:54:27.139Z,21.58
2022-12-20T01:56:59.169Z,21.55
2022-12-20T01:59:27.339Z,23.35
2022-12-20T02:01:56.587Z,23.88
2022-12-20T02:04:24.160Z,23.17
2022-12-20T02:06:51.990Z,21.13
2022-12-20T02:09:19.698Z,25.60
2022-12-20T02:12:10.331Z,22.90
2022-12-20T02:14:56.356Z,22.67
2022-12-20T02:17:30.125Z,22.27
2022-12-20T02:20:07.524Z,22.27
2022-12-20T02:22:53.388Z,22.67
2022-12-20T02:25:20.951Z,25.30
2022-12-20T02:27:57.828Z,23.63
2022-12-20T02:30:28.191Z,23.25
2022-12-20T02:33:01.137Z,24.20
2022-12-20T02:35:30.862Z,23.45
2022-12-20T02:38:00.721Z,23.17
2022-12-20T02:40:35.172Z,23.00
2022-12-20T02:43:25.668Z,22.70
2022-12-20T02:45:54.149Z,23.60
2022-12-20T02:48:22.685Z,23.40
2022-12-20T02:50:51.559Z,23.58
2022-12-20T02:53:19.642Z,22.23
2022-12-20T02:55:49.087Z,22.23
2022-12-20T02:58:24.556Z,23.25
2022-12-20T03:00:52.651Z,23.70
2022-12-20T03:03:23.067Z,24.58
2022-12-20T03:05:52.351Z,22.85
2022-12-20T03:08:20.848Z,23.08
2022-12-20T03:10:48.826Z,21.75
2022-12-20T03:13:16.386Z,21.48
2022-12-20T03:15:44.118Z,21.80
2022-12-20T03:18:11.741Z,24.38
2022-12-20T03:20:40.064Z,23.50
2022-12-20T03:23:07.795Z,22.55
2022-12-20T03:25:35.530Z,23.20
2022-12-20T03:28:03.061Z,23.15
2022-12-20T03:30:30.828Z,22.00
2022-12-20T03:32:58.481Z,21.88
2022-12-20T03:35:26.096Z,22.30
2022-12-20T03:37:53.604Z,22.42
2022-12-20T03:40:21.237Z,21.85
2022-12-20T03:42:49.188Z,22.27
2022-12-20T03:45:16.797Z,25.15
2022-12-20T03:47:44.647Z,23.25
2022-12-20T03:50:12.732Z,22.67
2022-12-20T03:52:40.647Z,21.38
2022-12-20T03:55:08.615Z,22.75
2022-12-20T03:57:36.800Z,22.52
2022-12-20T04:00:04.750Z,22.38
2022-12-20T04:02:32.786Z,22.77
2022-12-20T04:05:00.723Z,22.67
2022-12-20T04:07:28.343Z,21.58
2022-12-20T04:09:55.928Z,22.15
2022-12-20T04:12:23.807Z,22.23
2022-12-20T04:14:51.446Z,22.75
2022-12-20T04:17:19.052Z,23.17
2022-12-20T04:19:46.560Z,22.23
2022-12-20T04:22:14.416Z,22.33
2022-12-20T04:24:42.222Z,21.13
2022-12-20T04:27:09.686Z,20.42
2022-12-20T04:29:37.303Z,18.95
2022-12-20T04:32:05.265Z,21.42
2022-12-20T04:34:33.103Z,21.17
2022-12-20T04:37:00.540Z,22.23
2022-12-20T04:39:28.200Z,21.98
2022-12-20T04:41:55.978Z,22.13
2022-12-20T04:44:23.896Z,22.55
2022-12-20T04:46:53.495Z,21.73
2022-12-20T04:49:21.310Z,21.80
2022-12-20T04:51:48.958Z,22.08
2022-12-20T04:54:16.623Z,21.08
2022-12-20T04:56:44.163Z,21.23
2022-12-20T04:59:12.924Z,21.13
2022-12-20T05:01:40.571Z,20.52
2022-12-20T05:04:08.354Z,20.55
2022-12-20T05:06:36.023Z,19.33
2022-12-20T05:09:03.908Z,21.95
2022-12-20T05:11:31.408Z,19.80
2022-12-20T05:13:59.106Z,19.77
2022-12-20T05:16:26.956Z,20.73
2022-12-20T05:18:55.191Z,19.55
2022-12-20T05:21:41.727Z,20.52
2022-12-20T05:24:28.914Z,20.15
2022-12-20T05:26:56.769Z,20.08
2022-12-20T05:29:24.393Z,20.70
2022-12-20T05:31:52.097Z,21.08
2022-12-20T05:34:19.470Z,20.98
2022-12-20T05:36:47.173Z,21.40
2022-12-20T05:39:14.839Z,20.08
2022-12-20T05:41:42.496Z,21.13
2022-12-20T05:44:10.181Z,17.70
2022-12-20T05:46:38.085Z,20.08
2022-12-20T05:49:05.710Z,20.40
2022-12-20T05:51:33.459Z,18.25
2022-12-20T05:54:01.129Z,18.27
2022-12-20T05:56:28.990Z,19.42
2022-12-20T05:58:57.298Z,19.73
2022-12-20T06:01:24.890Z,19.60
2022-12-20T06:03:53.313Z,20.10
2022-12-20T06:06:20.897Z,21.23
2022-12-20T06:08:48.459Z,19.20
2022-12-20T06:11:16.181Z,20.38
2022-12-20T06:13:43.770Z,19.48
2022-12-20T06:16:11.339Z,18.27
2022-12-20T06:18:38.969Z,22.05
2022-12-20T06:21:06.592Z,19.73
2022-12-20T06:23:34.989Z,18.50
2022-12-20T06:26:02.772Z,19.38
2022-12-20T06:28:31.092Z,18.48
2022-12-20T06:30:59.135Z,19.13
2022-12-20T06:33:27.261Z,18.45
2022-12-20T06:35:55.380Z,19.25
2022-12-20T06:38:23.000Z,20.60
2022-12-20T06:40:50.887Z,20.33
2022-12-20T06:43:18.539Z,22.92
2022-12-20T06:45:46.133Z,22.00
2022-12-20T06:48:14.019Z,21.40
2022-12-20T06:50:41.633Z,21.98
2022-12-20T06:53:09.221Z,22.00
2022-12-20T06:55:36.900Z,22.83
2022-12-20T06:58:05.280Z,21.90
2022-12-20T07:00:33.242Z,22.77
2022-12-20T07:03:01.003Z,22.42
2022-12-20T07:05:28.703Z,24.67
2022-12-20T07:07:56.696Z,24.70
2022-12-20T07:10:24.311Z,22.63
2022-12-20T07:12:53.313Z,23.33
2022-12-20T07:15:22.668Z,22.88
2022-12-20T07:17:50.383Z,23.45
2022-12-20T07:20:19.151Z,21.73
2022-12-20T07:22:53.184Z,22.65
2022-12-20T07:27:50.381Z,19.50
2022-12-20T07:30:19.403Z,21.30
2022-12-20T07:32:47.294Z,21.58
2022-12-20T07:35:15.883Z,21.45
2022-12-20T07:37:44.056Z,21.67
2022-12-20T07:40:12.920Z,20.75
2022-12-20T07:42:47.959Z,24.45
2022-12-20T07:45:16.279Z,22.08
2022-12-20T07:47:44.541Z,21.45
2022-12-20T07:50:12.294Z,22.83
2022-12-20T07:52:41.496Z,22.52
2022-12-20T07:55:10.897Z,22.27
2022-12-20T07:57:47.021Z,22.85
2022-12-20T08:00:15.332Z,21.55
2022-12-20T08:02:47.777Z,22.10
2022-12-20T08:05:16.390Z,23.08
2022-12-20T08:07:44.642Z,23.45
2022-12-20T08:10:13.384Z,22.48
2022-12-20T08:12:42.253Z,21.83
2022-12-20T08:15:10.036Z,22.95
2022-12-20T08:17:37.779Z,21.83
2022-12-20T08:20:07.060Z,21.30
2022-12-20T08:22:34.821Z,21.80
2022-12-20T08:25:02.786Z,23.05
2022-12-20T08:27:30.411Z,22.65
2022-12-20T08:29:58.321Z,22.90
2022-12-20T08:32:25.969Z,22.48
2022-12-20T08:34:53.805Z,23.38
2022-12-20T08:37:21.336Z,25.33
2022-12-20T08:39:49.029Z,30.55
2022-12-20T08:42:16.563Z,32.83
2022-12-20T08:44:44.801Z,24.58
2022-12-20T08:47:12.613Z,24.25
2022-12-20T08:49:47.219Z,24.52
2022-12-20T08:52:15.344Z,22.60
2022-12-20T08:54:42.958Z,24.38
2022-12-20T08:57:10.458Z,22.73
2022-12-20T08:59:38.187Z,21.73
2022-12-20T09:02:06.335Z,21.27
2022-12-20T09:04:34.916Z,23.67
2022-12-20T09:07:02.548Z,23.65
2022-12-20T09:09:30.148Z,23.73
2022-12-20T09:11:57.732Z,23.02
2022-12-20T09:14:25.596Z,21.65
2022-12-20T09:16:53.292Z,22.25
2022-12-20T09:19:20.993Z,23.70
2022-12-20T09:21:52.825Z,25.17
2022-12-20T09:24:21.111Z,22.65
2022-12-20T09:26:52.073Z,23.33
2022-12-20T09:32:12.938Z,22.75
2022-12-20T09:37:13.994Z,21.90
2022-12-20T09:45:28.815Z,23.42
2022-12-20T09:48:04.144Z,19.38
2022-12-20T09:50:50.252Z,21.42
2022-12-20T09:53:30.352Z,20.95
2022-12-20T09:56:09.505Z,20.60
2022-12-20T09:58:56.461Z,20.45
2022-12-20T10:01:28.764Z,20.98
2022-12-20T10:04:00.399Z,21.02
2022-12-20T10:06:36.617Z,23.00
2022-12-20T10:09:06.229Z,21.40
2022-12-20T10:11:52.900Z,20.27
2022-12-20T10:14:24.475Z,21.63
2022-12-20T10:16:55.291Z,22.45
2022-12-20T10:19:29.413Z,20.33
2022-12-20T10:24:32.250Z,19.83
2022-12-20T10:27:04.441Z,19.50
2022-12-20T10:29:32.666Z,20.95
2022-12-20T10:32:01.965Z,19.75
2022-12-20T10:34:36.590Z,19.83
2022-12-20T10:37:13.201Z,19.83
2022-12-20T10:39:45.230Z,19.88
2022-12-20T10:42:38.724Z,19.73
2022-12-20T10:45:25.035Z,19.15
2022-12-20T10:47:52.770Z,21.15
2022-12-20T10:50:21.485Z,21.30
2022-12-20T10:53:04.640Z,19.55
2022-12-20T10:55:42.540Z,20.00
2022-12-20T10:58:16.389Z,19.70
2022-12-20T11:00:44.709Z,19.70
2022-12-20T11:03:24.906Z,20.42
2022-12-20T11:06:02.077Z,20.67
2022-12-20T11:08:39.252Z,20.60
2022-12-20T11:11:21.043Z,19.10
2022-12-20T11:13:49.231Z,20.05
2022-12-20T11:16:25.419Z,20.05
2022-12-20T11:19:01.381Z,18.92
2022-12-20T11:21:41.216Z,20.00
2022-12-20T11:24:12.854Z,17.63
2022-12-20T11:26:59.750Z,17.95
2022-12-20T11:29:41.300Z,18.52
2022-12-20T11:32:09.185Z,17.10
2022-12-20T11:34:42.401Z,17.88
2022-12-20T11:37:11.805Z,18.57
2022-12-20T11:39:52.770Z,18.30
2022-12-20T11:42:29.743Z,19.30
2022-12-20T11:45:09.350Z,21.33
2022-12-20T11:47:49.469Z,21.05
2022-12-20T11:50:41.141Z,20.13
2022-12-20T11:53:12.879Z,17.30
2022-12-20T11:55:46.135Z,18.42
2022-12-20T11:58:19.924Z,18.47
2022-12-20T12:03:20.238Z,18.17
2022-12-20T12:05:52.702Z,18.50
2022-12-20T12:08:33.793Z,18.60
2022-12-20T12:11:07.114Z,19.25
2022-12-20T12:13:37.617Z,19.53
2022-12-20T12:16:37.517Z,19.77
2022-12-20T12:19:18.946Z,18.80
2022-12-20T12:22:00.342Z,18.90
2022-12-20T12:24:30.989Z,19.48
2022-12-20T12:27:00.127Z,19.83
2022-12-20T12:29:29.641Z,18.42
2022-12-20T12:31:58.423Z,18.88
2022-12-20T12:34:38.228Z,18.77
2022-12-20T12:37:14.701Z,19.45
2022-12-20T12:39:45.117Z,18.92
2022-12-20T12:42:14.293Z,19.17
2022-12-20T12:44:54.729Z,21.58
2022-12-20T12:47:41.951Z,19.83
2022-12-20T12:50:16.743Z,18.50
2022-12-20T12:52:51.828Z,17.95
2022-12-20T12:55:37.954Z,18.50
2022-12-20T12:58:24.048Z,18.15
2022-12-20T13:00:51.710Z,18.27
2022-12-20T13:03:48.818Z,20.15
2022-12-20T13:06:31.347Z,19.45
2022-12-20T13:09:04.845Z,19.50
2022-12-20T13:11:36.097Z,19.85
2022-12-20T13:14:32.928Z,18.52
2022-12-20T13:17:16.195Z,19.73
2022-12-20T13:19:54.468Z,20.95
2022-12-20T13:22:25.745Z,18.25
2022-12-20T13:24:57.125Z,19.20
2022-12-20T13:27:26.751Z,19.77
2022-12-20T13:30:03.092Z,20.48
2022-12-20T13:32:49.083Z,20.48
2022-12-20T13:35:25.798Z,21.38
2022-12-20T13:37:57.980Z,22.13
2022-12-20T13:40:43.595Z,23.75
2022-12-20T13:43:23.513Z,24.42
2022-12-20T13:45:59.683Z,24.63
2022-12-20T13:48:28.891Z,23.20
2022-12-20T13:50:56.800Z,24.45
2022-12-20T13:53:25.729Z,21.63
2022-12-20T13:55:53.035Z,22.92
2022-12-20T13:58:27.340Z,24.10
2022-12-20T14:00:55.257Z,24.52
2022-12-20T14:03:30.050Z,24.30
2022-12-20T14:05:59.533Z,23.45
2022-12-20T14:08:30.082Z,24.13
2022-12-20T14:11:07.640Z,24.48
2022-12-20T14:13:35.183Z,24.67
2022-12-20T14:16:11.318Z,24.88
2022-12-20T14:18:38.981Z,23.45
2022-12-20T14:21:07.229Z,25.05
2022-12-20T14:23:53.885Z,24.58
2022-12-20T14:26:24.433Z,23.40
2022-12-20T14:28:53.457Z,25.15
2022-12-20T14:31:26.967Z,26.88
2022-12-20T14:34:03.804Z,24.88
2022-12-20T14:36:31.981Z,25.60
2022-12-20T14:38:59.563Z,24.52
2022-12-20T14:41:30.404Z,25.33
2022-12-20T14:43:59.239Z,25.52
2022-12-20T14:46:26.943Z,25.40
2022-12-20T14:49:27.352Z,24.23
2022-12-20T14:52:06.862Z,24.77
2022-12-20T14:55:07.322Z,25.42
2022-12-20T14:57:25.680Z,24.58
2022-12-20T15:00:07.962Z,23.77
2022-12-20T15:02:37.852Z,23.58
2022-12-20T15:05:09.569Z,24.00
2022-12-20T15:07:41.996Z,22.70
2022-12-20T15:10:09.836Z,24.58
2022-12-20T15:12:41.936Z,23.92
2022-12-20T15:15:28.896Z,23.58
2022-12-20T15:17:57.244Z,24.33
2022-12-20T15:20:24.708Z,23.05
2022-12-20T15:22:52.518Z,24.05
2022-12-20T15:25:20.328Z,25.83
2022-12-20T15:27:47.918Z,25.52
2022-12-20T15:30:15.500Z,25.95
2022-12-20T15:32:54.713Z,25.35
2022-12-20T15:35:23.003Z,27.80
2022-12-20T15:37:50.521Z,29.92
2022-12-20T15:40:18.300Z,27.17
2022-12-20T15:42:45.666Z,26.33
2022-12-20T15:45:14.209Z,28.40
2022-12-20T15:47:41.595Z,25.85
2022-12-20T15:50:09.456Z,25.75
2022-12-20T15:52:37.119Z,26.00
2022-12-20T15:55:04.854Z,25.42
2022-12-20T15:57:32.388Z,29.55
2022-12-20T16:00:02.339Z,26.83
2022-12-20T16:02:31.539Z,28.70
2022-12-20T16:04:59.582Z,28.45
2022-12-20T16:07:27.476Z,27.23
2022-12-20T16:09:55.276Z,28.83
2022-12-20T16:12:33.932Z,33.38
2022-12-20T16:15:01.488Z,29.00
2022-12-20T16:17:28.918Z,28.25
2022-12-20T16:19:56.311Z,26.67
2022-12-20T16:22:25.328Z,28.52
2022-12-20T16:24:52.730Z,28.02
2022-12-20T16:27:21.173Z,29.23
2022-12-20T16:29:49.046Z,29.75
2022-12-20T16:32:17.434Z,29.33
2022-12-20T16:34:45.663Z,29.55
2022-12-20T16:37:13.389Z,28.17
2022-12-20T16:39:41.144Z,26.80
2022-12-20T16:42:15.644Z,27.13
2022-12-20T16:44:45.740Z,28.27
2022-12-20T16:47:14.382Z,28.23
2022-12-20T16:49:49.601Z,27.83
2022-12-20T16:52:20.550Z,31.15
2022-12-20T16:54:48.064Z,30.33
2022-12-20T16:57:15.430Z,33.03
2022-12-20T16:59:42.850Z,30.33
2022-12-20T17:02:20.431Z,30.58
2022-12-20T17:04:47.959Z,32.85
2022-12-20T17:07:16.405Z,32.55
2022-12-20T17:12:28.711Z,29.58
2022-12-20T17:14:56.847Z,27.80
2022-12-20T17:17:24.229Z,23.63
2022-12-20T17:19:51.777Z,18.92
2022-12-20T17:22:25.621Z,27.05
2022-12-20T17:24:53.195Z,24.88
2022-12-20T17:27:21.219Z,25.38
2022-12-20T17:29:50.850Z,26.58
2022-12-20T17:32:26.112Z,26.15
2022-12-20T17:34:53.767Z,25.63
2022-12-20T17:37:21.775Z,24.13
2022-12-20T17:39:49.307Z,23.25
2022-12-20T17:42:17.266Z,22.52
2022-12-20T17:44:46.484Z,24.08
2022-12-20T17:47:14.343Z,25.00
2022-12-20T17:49:42.138Z,24.55
2022-12-20T17:52:14.198Z,23.80
2022-12-20T17:54:41.945Z,24.13
2022-12-20T17:57:13.809Z,23.80
2022-12-20T17:59:41.509Z,21.65
2022-12-20T18:02:22.622Z,25.17
2022-12-20T18:04:50.399Z,25.10
2022-12-20T18:07:18.064Z,28.73
2022-12-20T18:09:47.399Z,27.52
2022-12-20T18:12:14.745Z,25.65
2022-12-20T18:14:42.315Z,24.58
2022-12-20T18:17:10.168Z,24.13
2022-12-20T18:19:37.851Z,23.67
2022-12-20T18:22:05.363Z,22.67
2022-12-20T18:24:33.311Z,24.02
2022-12-20T18:27:00.901Z,22.17
2022-12-20T18:29:29.124Z,22.70
2022-12-20T18:31:57.052Z,22.77
2022-12-20T18:34:24.954Z,23.25
2022-12-20T18:36:52.481Z,22.83
2022-12-20T18:39:19.914Z,22.25
2022-12-20T18:41:48.816Z,26.05
2022-12-20T18:44:16.547Z,26.10
2022-12-20T18:46:43.999Z,27.40
2022-12-20T18:49:11.761Z,25.65
2022-12-20T18:51:39.226Z,28.83
2022-12-20T18:54:08.270Z,29.92
2022-12-20T18:56:37.639Z,29.50
2022-12-20T18:59:11.585Z,29.80
2022-12-20T19:01:41.188Z,28.20
2022-12-20T19:04:09.167Z,28.80
2022-12-20T19:06:37.537Z,28.23
2022-12-20T19:09:06.449Z,28.52
2022-12-20T19:11:34.331Z,29.33
2022-12-20T19:14:02.144Z,28.63
2022-12-20T19:19:18.029Z,28.10
2022-12-20T19:21:45.552Z,27.75
2022-12-20T19:24:13.153Z,28.73
2022-12-20T19:26:41.113Z,26.67
2022-12-20T19:29:09.113Z,25.85
2022-12-20T19:31:37.978Z,50.20
2022-12-20T19:34:11.415Z,36.15
2022-12-20T19:36:40.201Z,28.65
2022-12-20T19:39:09.295Z,26.30
2022-12-20T19:41:37.065Z,26.48
2022-12-20T19:44:06.471Z,30.00
2022-12-20T19:46:34.291Z,27.02
2022-12-20T19:49:01.933Z,25.60
2022-12-20T19:51:29.503Z,26.95
2022-12-20T19:53:57.903Z,26.88
2022-12-20T19:56:26.880Z,28.30
2022-12-20T19:58:55.495Z,26.65
2022-12-20T20:01:26.102Z,27.80
2022-12-20T20:03:58.759Z,29.25
2022-12-20T20:06:26.778Z,28.25
2022-12-20T20:08:54.541Z,25.27
2022-12-20T20:11:22.257Z,26.83
2022-12-20T20:13:49.760Z,22.30
2022-12-20T20:16:22.210Z,23.00
2022-12-20T20:18:50.860Z,23.10
2022-12-20T20:21:21.482Z,21.63
2022-12-20T20:23:49.608Z,23.83
2022-12-20T20:26:18.478Z,24.58
2022-12-20T20:28:45.934Z,24.67
2022-12-20T20:31:14.650Z,24.25
2022-12-20T20:33:42.905Z,23.30
2022-12-20T20:36:14.692Z,23.95
2022-12-20T20:38:42.501Z,24.20
2022-12-20T20:41:10.173Z,23.85
2022-12-20T20:43:38.341Z,25.02
2022-12-20T20:46:06.744Z,20.35
2022-12-20T20:48:34.361Z,23.35
2022-12-20T20:51:02.178Z,25.38
2022-12-20T20:53:33.756Z,20.88
2022-12-20T20:56:02.535Z,20.63
2022-12-20T20:58:29.977Z,23.77
2022-12-20T21:00:59.820Z,24.25
2022-12-20T21:03:28.070Z,22.75
2022-12-20T21:08:44.867Z,23.92
2022-12-20T21:11:12.525Z,25.52
2022-12-20T21:13:40.185Z,24.67
2022-12-20T21:16:17.627Z,24.58
2022-12-20T21:18:45.264Z,24.67
2022-12-20T21:21:13.534Z,25.20
2022-12-20T21:23:44.648Z,25.48
2022-12-20T21:26:12.354Z,25.27
2022-12-20T21:28:40.852Z,25.05
2022-12-20T21:31:12.234Z,27.92
2022-12-20T21:33:40.300Z,29.70
2022-12-20T21:36:09.008Z,29.90
2022-12-20T21:38:36.491Z,27.73
2022-12-20T21:41:04.781Z,27.77
2022-12-20T21:43:32.325Z,28.75
2022-12-20T21:46:00.384Z,28.30
2022-12-20T21:48:30.100Z,27.23
2022-12-20T21:51:00.351Z,28.33
2022-12-20T21:53:27.971Z,31.17
2022-12-20T21:55:59.347Z,29.17
2022-12-20T21:58:28.037Z,30.77
2022-12-20T22:00:56.362Z,30.40
2022-12-20T22:03:24.844Z,31.50
2022-12-20T22:05:54.047Z,28.88
2022-12-20T22:08:22.338Z,23.98
2022-12-20T22:10:53.148Z,26.85
2022-12-20T22:13:20.949Z,28.55
2022-12-20T22:15:48.444Z,26.75
2022-12-20T22:18:16.079Z,24.13
2022-12-20T22:20:45.143Z,25.17
2022-12-20T22:23:12.860Z,24.30
2022-12-20T22:25:40.544Z,23.13
2022-12-20T22:28:08.307Z,23.02
2022-12-20T22:30:35.997Z,25.08
2022-12-20T22:33:03.624Z,24.73
2022-12-20T22:35:31.060Z,23.73
2022-12-20T22:37:58.504Z,25.15
2022-12-20T22:40:26.231Z,24.27
2022-12-20T22:42:53.699Z,25.13
2022-12-20T22:45:21.399Z,26.27
2022-12-20T22:47:48.833Z,24.08
2022-12-20T22:50:16.971Z,24.27
2022-12-20T22:52:44.685Z,23.67
2022-12-20T22:55:12.573Z,26.90
2022-12-20T22:57:40.107Z,27.65
2022-12-20T23:00:13.387Z,25.85
2022-12-20T23:02:44.072Z,26.37
2022-12-20T23:05:11.904Z,28.70
2022-12-20T23:07:39.572Z,27.35
2022-12-20T23:10:27.362Z,27.13
2022-12-20T23:13:13.974Z,26.48
2022-12-20T23:15:41.543Z,27.65
2022-12-20T23:18:09.233Z,26.40
2022-12-20T23:20:55.593Z,28.05
2022-12-20T23:23:23.283Z,26.55
2022-12-20T23:25:50.797Z,25.08
2022-12-20T23:28:18.343Z,25.08
2022-12-20T23:30:45.763Z,25.08
2022-12-20T23:33:13.505Z,25.70
2022-12-20T23:35:41.164Z,28.27
2022-12-20T23:38:08.878Z,28.00
2022-12-20T23:40:36.263Z,26.85
2022-12-20T23:43:03.804Z,24.73
2022-12-20T23:45:31.332Z,26.55
2022-12-20T23:47:58.696Z,26.95
2022-12-20T23:50:26.500Z,24.15
2022-12-20T23:52:54.046Z,23.73
2022-12-20T23:55:21.595Z,24.38
2022-12-20T23:57:48.930Z,25.05
